createdAt,value
2019-03-21T00:00:26.464Z,25.13
2019-03-21T00:02:58.527Z,29.50
2019-03-21T00:05:32.807Z,26.17
2019-03-21T00:08:05.362Z,21.97
2019-03-21T00:11:31.072Z,23.73
2019-03-21T00:14:07.456Z,28.73
2019-03-21T00:16:39.367Z,28.70
2019-03-21T00:19:11.390Z,32.03
2019-03-21T00:21:43.537Z,27.47
2019-03-21T00:24:15.598Z,28.97
2019-03-21T00:26:48.541Z,28.80
2019-03-21T00:29:20.769Z,24.93
2019-03-21T00:31:53.211Z,28.10
2019-03-21T00:34:26.868Z,28.70
2019-03-21T00:37:01.073Z,25.03
2019-03-21T00:39:34.437Z,30.23
2019-03-21T00:42:06.844Z,27.77
2019-03-21T00:44:38.616Z,28.13
2019-03-21T00:47:10.626Z,30.77
2019-03-21T00:49:43.236Z,23.37
2019-03-21T00:52:15.058Z,26.17
2019-03-21T00:54:46.948Z,28.90
2019-03-21T00:57:18.802Z,29.97
2019-03-21T00:59:50.679Z,27.60
2019-03-21T01:02:22.645Z,27.10
2019-03-21T01:04:55.485Z,30.03
2019-03-21T01:07:27.849Z,28.23
2019-03-21T01:09:59.966Z,32.00
2019-03-21T01:12:31.806Z,24.53
2019-03-21T01:15:03.672Z,26.43
2019-03-21T01:17:35.545Z,23.97
2019-03-21T01:20:09.578Z,33.00
2019-03-21T01:22:41.788Z,26.70
2019-03-21T01:25:17.150Z,27.17
2019-03-21T01:27:49.066Z,33.50
2019-03-21T01:30:21.648Z,27.60
2019-03-21T01:32:53.651Z,26.70
2019-03-21T01:35:25.642Z,27.97
2019-03-21T01:37:57.706Z,33.23
2019-03-21T01:40:30.497Z,22.77
2019-03-21T01:43:02.655Z,25.37
2019-03-21T01:45:34.602Z,29.03
2019-03-21T01:48:06.475Z,25.67
2019-03-21T01:50:38.589Z,23.23
2019-03-21T01:53:10.563Z,27.03
2019-03-21T01:55:42.704Z,22.33
2019-03-21T01:58:14.527Z,26.73
2019-03-21T02:00:47.471Z,24.83
2019-03-21T02:03:19.551Z,26.67
2019-03-21T02:05:51.607Z,26.03
2019-03-21T02:08:23.548Z,29.63
2019-03-21T02:10:55.528Z,26.73
2019-03-21T02:13:27.422Z,24.50
2019-03-21T02:16:00.710Z,22.47
2019-03-21T02:18:33.394Z,25.63
2019-03-21T02:21:05.207Z,28.40
2019-03-21T02:23:37.129Z,25.80
2019-03-21T02:26:08.995Z,22.80
2019-03-21T02:28:40.849Z,27.63
2019-03-21T02:31:13.560Z,36.47
2019-03-21T02:33:45.705Z,27.83
2019-03-21T02:36:17.606Z,25.73
2019-03-21T02:38:49.478Z,24.83
2019-03-21T02:41:21.493Z,24.73
2019-03-21T02:43:53.549Z,31.00
2019-03-21T02:46:25.480Z,25.30
2019-03-21T02:48:57.635Z,30.40
2019-03-21T02:51:30.639Z,27.80
2019-03-21T02:54:02.649Z,32.53
2019-03-21T02:56:34.703Z,35.87
2019-03-21T02:59:06.891Z,31.20
2019-03-21T03:01:39.569Z,28.17
2019-03-21T03:04:11.390Z,26.30
2019-03-21T03:06:43.547Z,27.40
2019-03-21T03:09:15.319Z,38.63
2019-03-21T03:11:47.359Z,34.87
2019-03-21T03:14:19.202Z,36.00
2019-03-21T03:16:51.153Z,27.13
2019-03-21T03:19:22.983Z,26.37
2019-03-21T03:21:55.419Z,33.87
2019-03-21T03:24:29.483Z,33.37
2019-03-21T03:27:01.633Z,39.57
2019-03-21T03:29:34.286Z,30.27
2019-03-21T03:32:06.071Z,39.00
2019-03-21T03:34:38.065Z,27.30
2019-03-21T03:37:10.258Z,31.23
2019-03-21T03:39:42.232Z,29.43
2019-03-21T03:42:14.099Z,24.33
2019-03-21T03:44:46.064Z,32.80
2019-03-21T03:47:18.499Z,32.57
2019-03-21T03:49:51.030Z,34.93
2019-03-21T03:52:22.953Z,40.63
2019-03-21T03:54:55.176Z,31.53
2019-03-21T03:57:27.274Z,31.43
2019-03-21T03:59:59.223Z,30.73
2019-03-21T04:02:31.227Z,37.07
2019-03-21T04:05:03.074Z,34.10
2019-03-21T04:07:35.016Z,38.60
2019-03-21T04:10:08.675Z,33.53
2019-03-21T04:12:40.787Z,34.40
2019-03-21T04:15:13.453Z,35.30
2019-03-21T04:17:45.366Z,29.23
2019-03-21T04:20:18.005Z,33.03
2019-03-21T04:22:50.098Z,32.37
2019-03-21T04:25:25.019Z,34.60
2019-03-21T04:27:56.898Z,33.33
2019-03-21T04:30:28.974Z,34.53
2019-03-21T04:33:00.789Z,36.90
2019-03-21T04:35:32.611Z,35.80
2019-03-21T04:38:04.565Z,29.23
2019-03-21T04:40:36.421Z,36.30
2019-03-21T04:43:08.338Z,33.70
2019-03-21T04:45:40.190Z,33.70
2019-03-21T04:48:12.230Z,32.40
2019-03-21T04:50:44.225Z,30.93
2019-03-21T04:53:16.088Z,31.43
2019-03-21T04:55:48.140Z,35.23
2019-03-21T04:58:19.994Z,26.87
2019-03-21T05:00:51.920Z,35.73
2019-03-21T05:03:23.883Z,28.37
2019-03-21T05:05:56.059Z,32.13
2019-03-21T05:08:28.421Z,35.27
2019-03-21T05:11:00.601Z,44.00
2019-03-21T05:13:33.619Z,26.30
2019-03-21T05:16:14.265Z,29.70
2019-03-21T05:18:40.515Z,28.23
2019-03-21T05:21:13.414Z,27.10
2019-03-21T05:23:45.510Z,33.17
2019-03-21T05:26:17.429Z,32.73
2019-03-21T05:28:49.430Z,33.53
2019-03-21T05:31:24.635Z,51.43
2019-03-21T05:33:56.564Z,27.33
2019-03-21T05:36:28.641Z,33.83
2019-03-21T05:39:00.535Z,26.17
2019-03-21T05:41:32.403Z,26.53
2019-03-21T05:44:25.341Z,25.77
2019-03-21T05:46:57.841Z,21.33
2019-03-21T05:49:30.261Z,29.03
2019-03-21T05:52:02.195Z,30.53
2019-03-21T05:54:34.366Z,27.23
2019-03-21T05:57:06.424Z,28.90
2019-03-21T05:59:38.273Z,29.17
2019-03-21T06:02:10.290Z,27.13
2019-03-21T06:04:42.344Z,36.67
2019-03-21T06:07:46.520Z,32.67
2019-03-21T06:10:18.798Z,35.90
2019-03-21T06:12:50.771Z,27.87
2019-03-21T06:15:25.573Z,32.73
2019-03-21T06:18:12.514Z,26.57
2019-03-21T06:21:17.279Z,28.40
2019-03-21T06:24:08.446Z,30.53
2019-03-21T06:26:50.285Z,29.00
2019-03-21T06:29:22.173Z,27.30
2019-03-21T06:31:54.163Z,30.60
2019-03-21T06:34:26.392Z,32.40
2019-03-21T06:37:02.710Z,36.07
2019-03-21T06:39:34.715Z,25.93
2019-03-21T06:42:06.517Z,35.03
2019-03-21T06:44:38.665Z,24.33
2019-03-21T06:47:11.219Z,28.50
2019-03-21T06:49:43.198Z,23.77
2019-03-21T06:52:15.056Z,32.30
2019-03-21T06:54:46.841Z,24.93
2019-03-21T06:57:18.796Z,27.23
2019-03-21T06:59:50.741Z,25.97
2019-03-21T07:02:22.852Z,23.50
2019-03-21T07:04:55.139Z,31.70
2019-03-21T07:07:27.451Z,28.00
2019-03-21T07:09:59.476Z,20.70
2019-03-21T07:12:31.727Z,25.37
2019-03-21T07:15:04.938Z,26.73
2019-03-21T07:17:37.008Z,18.67
2019-03-21T07:20:09.229Z,25.33
2019-03-21T07:22:41.216Z,22.23
2019-03-21T07:25:13.360Z,25.73
2019-03-21T07:27:45.418Z,21.53
2019-03-21T07:30:17.436Z,21.20
2019-03-21T07:32:49.271Z,20.93
2019-03-21T07:35:21.160Z,21.43
2019-03-21T07:37:53.043Z,22.07
2019-03-21T07:40:25.357Z,20.40
2019-03-21T07:42:57.412Z,17.30
2019-03-21T07:45:29.337Z,17.63
2019-03-21T07:48:01.479Z,19.53
2019-03-21T07:50:33.664Z,13.30
2019-03-21T07:53:05.987Z,15.90
2019-03-21T07:55:37.928Z,16.77
2019-03-21T07:58:10.172Z,15.47
2019-03-21T08:00:43.176Z,19.47
2019-03-21T08:03:15.079Z,21.83
2019-03-21T08:05:47.278Z,14.63
2019-03-21T08:08:19.704Z,17.53
2019-03-21T08:10:52.430Z,13.73
2019-03-21T08:13:24.531Z,20.07
2019-03-21T08:15:56.809Z,17.87
2019-03-21T08:18:29.261Z,20.73
2019-03-21T08:21:01.968Z,17.07
2019-03-21T08:23:33.884Z,14.20
2019-03-21T08:26:05.765Z,16.53
2019-03-21T08:28:37.593Z,18.57
2019-03-21T08:31:26.629Z,10.20
2019-03-21T08:33:58.792Z,9.43
2019-03-21T08:36:30.635Z,16.83
2019-03-21T08:39:03.082Z,12.13
2019-03-21T08:41:34.915Z,12.67
2019-03-21T08:44:06.938Z,12.83
2019-03-21T08:46:38.806Z,10.63
2019-03-21T08:49:10.724Z,8.87
2019-03-21T08:51:42.745Z,14.97
2019-03-21T08:54:14.838Z,14.00
2019-03-21T08:56:46.742Z,9.37
2019-03-21T08:59:21.965Z,12.90
2019-03-21T09:01:54.371Z,10.97
2019-03-21T09:04:27.193Z,12.67
2019-03-21T09:07:00.327Z,14.13
2019-03-21T09:09:32.249Z,14.13
2019-03-21T09:12:04.262Z,12.23
2019-03-21T09:14:36.200Z,10.73
2019-03-21T09:17:08.037Z,12.80
2019-03-21T09:19:40.069Z,11.63
2019-03-21T09:22:11.952Z,13.03
2019-03-21T09:24:44.136Z,13.40
2019-03-21T09:27:16.734Z,12.07
2019-03-21T09:29:53.861Z,13.43
2019-03-21T09:32:23.989Z,12.93
2019-03-21T09:34:56.817Z,14.27
2019-03-21T09:37:28.833Z,14.83
2019-03-21T09:40:01.227Z,15.47
2019-03-21T09:42:33.128Z,16.47
2019-03-21T09:45:06.195Z,16.93
2019-03-21T09:47:38.772Z,15.50
2019-03-21T09:50:11.858Z,14.60
2019-03-21T09:52:43.937Z,15.93
2019-03-21T09:55:15.849Z,17.73
2019-03-21T09:57:47.738Z,18.30
2019-03-21T10:00:31.797Z,15.70
2019-03-21T10:03:04.467Z,17.90
2019-03-21T10:05:36.329Z,16.07
2019-03-21T10:08:08.735Z,15.67
2019-03-21T10:10:40.586Z,12.33
2019-03-21T10:13:12.566Z,15.13
2019-03-21T10:15:44.742Z,12.97
2019-03-21T10:18:17.130Z,13.33
2019-03-21T10:20:49.155Z,15.67
2019-03-21T10:23:21.029Z,14.63
2019-03-21T10:25:52.999Z,15.37
2019-03-21T10:28:24.919Z,7.77
2019-03-21T10:30:57.342Z,9.57
2019-03-21T10:33:29.587Z,8.90
2019-03-21T10:36:01.563Z,14.90
2019-03-21T10:38:33.673Z,14.00
2019-03-21T10:41:06.060Z,16.37
2019-03-21T10:43:38.106Z,17.50
2019-03-21T10:46:09.962Z,15.33
2019-03-21T10:48:41.760Z,13.77
2019-03-21T10:51:14.614Z,13.37
2019-03-21T10:53:46.669Z,16.80
2019-03-21T10:56:19.296Z,16.23
2019-03-21T10:58:51.223Z,14.43
2019-03-21T11:01:23.737Z,17.47
2019-03-21T11:03:55.533Z,16.03
2019-03-21T11:06:27.641Z,14.07
2019-03-21T11:08:59.704Z,18.43
2019-03-21T11:11:31.545Z,14.13
2019-03-21T11:14:03.493Z,19.77
2019-03-21T11:16:35.406Z,17.37
2019-03-21T11:19:08.140Z,15.00
2019-03-21T11:21:40.087Z,18.73
2019-03-21T11:24:12.497Z,18.33
2019-03-21T11:26:44.579Z,17.47
2019-03-21T11:29:17.533Z,17.40
2019-03-21T11:31:49.365Z,16.20
2019-03-21T11:34:21.256Z,14.53
2019-03-21T11:36:53.279Z,21.07
2019-03-21T11:39:25.216Z,19.33
2019-03-21T11:41:57.101Z,14.53
2019-03-21T11:44:30.175Z,16.10
2019-03-21T11:47:02.216Z,14.90
2019-03-21T11:49:34.469Z,16.10
2019-03-21T11:52:17.499Z,15.67
2019-03-21T11:54:40.525Z,14.83
2019-03-21T11:57:12.690Z,16.13
2019-03-21T11:59:51.417Z,13.77
2019-03-21T12:02:26.488Z,16.77
2019-03-21T12:04:51.867Z,17.77
2019-03-21T12:07:24.813Z,15.23
2019-03-21T12:09:56.652Z,18.37
2019-03-21T12:12:29.403Z,17.00
2019-03-21T12:15:01.451Z,18.23
2019-03-21T12:17:33.397Z,18.97
2019-03-21T12:20:06.325Z,21.37
2019-03-21T12:22:38.159Z,17.70
2019-03-21T12:25:11.445Z,15.43
2019-03-21T12:27:43.497Z,14.03
2019-03-21T12:30:19.703Z,16.63
2019-03-21T12:32:52.699Z,14.80
2019-03-21T12:35:25.239Z,18.87
2019-03-21T12:37:57.211Z,16.60
2019-03-21T12:40:29.919Z,19.30
2019-03-21T12:43:01.956Z,18.60
2019-03-21T12:45:34.111Z,19.67
2019-03-21T12:48:06.981Z,19.93
2019-03-21T12:50:39.967Z,23.53
2019-03-21T12:53:12.021Z,21.37
2019-03-21T12:55:44.736Z,21.50
2019-03-21T12:58:17.635Z,24.73
2019-03-21T13:00:50.727Z,22.20
2019-03-21T13:03:23.156Z,18.20
2019-03-21T13:05:55.115Z,22.80
2019-03-21T13:08:33.864Z,20.90
2019-03-21T13:11:02.505Z,24.07
2019-03-21T13:13:34.492Z,22.40
2019-03-21T13:16:06.423Z,20.27
2019-03-21T13:18:38.476Z,19.37
2019-03-21T13:21:10.698Z,24.87
2019-03-21T13:23:42.790Z,20.73
2019-03-21T13:26:14.865Z,20.60
2019-03-21T13:28:47.181Z,19.43
2019-03-21T13:31:19.227Z,22.80
2019-03-21T13:33:52.113Z,22.23
2019-03-21T13:36:24.215Z,22.27
2019-03-21T13:38:56.146Z,23.93
2019-03-21T13:41:28.204Z,23.13
2019-03-21T13:44:00.932Z,23.43
2019-03-21T13:46:33.569Z,22.53
2019-03-21T13:49:06.153Z,25.23
2019-03-21T13:51:38.291Z,22.97
2019-03-21T13:54:10.358Z,25.67
2019-03-21T13:56:42.712Z,25.00
2019-03-21T13:59:14.765Z,23.97
2019-03-21T14:01:46.712Z,31.23
2019-03-21T14:04:19.477Z,28.53
2019-03-21T14:06:51.565Z,27.73
2019-03-21T14:09:24.313Z,24.90
2019-03-21T14:11:57.037Z,31.13
2019-03-21T14:14:29.053Z,31.23
2019-03-21T14:17:01.754Z,25.73
2019-03-21T14:19:34.417Z,29.40
2019-03-21T14:22:06.618Z,25.90
2019-03-21T14:24:38.836Z,23.90
2019-03-21T14:27:11.511Z,25.50
2019-03-21T14:29:44.403Z,20.90
2019-03-21T14:32:17.247Z,25.63
2019-03-21T14:34:49.805Z,23.73
2019-03-21T14:37:22.748Z,21.87
2019-03-21T14:39:54.699Z,24.80
2019-03-21T14:42:27.372Z,23.97
2019-03-21T14:44:59.407Z,25.50
2019-03-21T14:47:36.127Z,22.63
2019-03-21T14:50:07.466Z,26.27
2019-03-21T14:52:39.764Z,24.33
2019-03-21T14:55:12.931Z,24.47
2019-03-21T14:57:44.922Z,23.30
2019-03-21T15:00:18.013Z,28.17
2019-03-21T15:02:49.899Z,25.63
2019-03-21T15:05:21.835Z,25.33
2019-03-21T15:07:53.984Z,29.37
2019-03-21T15:10:26.870Z,30.23
2019-03-21T15:12:58.891Z,30.80
2019-03-21T15:15:32.260Z,31.70
2019-03-21T15:18:04.274Z,32.83
2019-03-21T15:20:36.202Z,34.60
2019-03-21T15:23:08.070Z,34.33
2019-03-21T15:25:40.192Z,34.00
2019-03-21T15:28:12.145Z,34.80
2019-03-21T15:30:44.095Z,39.93
2019-03-21T15:33:15.941Z,34.43
2019-03-21T15:35:48.822Z,37.23
2019-03-21T15:38:20.727Z,41.43
2019-03-21T15:40:52.595Z,41.13
2019-03-21T15:43:24.652Z,39.80
2019-03-21T15:45:56.574Z,39.57
2019-03-21T15:48:28.758Z,47.03
2019-03-21T15:51:04.851Z,40.57
2019-03-21T15:53:35.038Z,42.37
2019-03-21T15:56:07.375Z,43.17
2019-03-21T15:58:39.319Z,44.17
2019-03-21T16:01:11.474Z,42.80
2019-03-21T16:03:43.894Z,42.00
2019-03-21T16:06:16.416Z,42.00
2019-03-21T16:08:48.357Z,42.23
2019-03-21T16:11:20.222Z,41.17
2019-03-21T16:13:52.128Z,41.70
2019-03-21T16:16:24.086Z,39.27
2019-03-21T16:18:55.956Z,46.67
2019-03-21T16:21:28.181Z,40.07
2019-03-21T16:24:05.549Z,39.17
2019-03-21T16:26:36.636Z,40.00
2019-03-21T16:29:10.074Z,39.77
2019-03-21T16:31:41.175Z,39.60
2019-03-21T16:34:14.288Z,41.07
2019-03-21T16:36:46.266Z,38.07
2019-03-21T16:39:18.203Z,38.97
2019-03-21T16:41:51.366Z,37.00
2019-03-21T16:44:23.475Z,37.20
2019-03-21T16:46:56.285Z,39.43
2019-03-21T16:49:28.422Z,41.37
2019-03-21T16:52:00.441Z,39.77
2019-03-21T16:54:33.295Z,40.07
2019-03-21T16:57:05.147Z,42.00
2019-03-21T16:59:37.035Z,38.43
2019-03-21T17:02:08.925Z,40.80
2019-03-21T17:04:40.798Z,41.13
2019-03-21T17:07:12.811Z,39.40
2019-03-21T17:09:44.879Z,41.43
2019-03-21T17:12:17.452Z,41.80
2019-03-21T17:14:49.602Z,44.67
2019-03-21T17:17:22.222Z,46.30
2019-03-21T17:19:54.225Z,43.50
2019-03-21T17:22:26.140Z,43.87
2019-03-21T17:24:58.481Z,51.13
2019-03-21T17:27:31.469Z,44.27
2019-03-21T17:30:05.099Z,46.93
2019-03-21T17:32:37.191Z,48.70
2019-03-21T17:35:09.351Z,47.80
2019-03-21T17:37:41.455Z,48.67
2019-03-21T17:40:13.600Z,49.70
2019-03-21T17:42:45.571Z,45.80
2019-03-21T17:45:18.801Z,51.07
2019-03-21T17:47:51.778Z,48.73
2019-03-21T17:50:23.791Z,48.73
2019-03-21T17:52:55.802Z,52.87
2019-03-21T17:55:27.876Z,48.77
2019-03-21T17:57:59.869Z,49.50
2019-03-21T18:00:32.861Z,49.37
2019-03-21T18:03:05.073Z,51.60
2019-03-21T18:05:37.019Z,48.93
2019-03-21T18:08:09.044Z,49.97
2019-03-21T18:10:41.045Z,51.33
2019-03-21T18:13:12.970Z,52.07
2019-03-21T18:15:45.213Z,53.47
2019-03-21T18:18:17.247Z,53.17
2019-03-21T18:20:50.606Z,52.03
2019-03-21T18:23:22.547Z,48.97
2019-03-21T18:25:54.459Z,48.70
2019-03-21T18:28:26.631Z,50.63
2019-03-21T18:30:58.815Z,50.77
2019-03-21T18:33:30.767Z,55.10
2019-03-21T18:36:03.733Z,50.80
2019-03-21T18:38:36.215Z,50.67
2019-03-21T18:41:09.208Z,53.67
2019-03-21T18:43:41.171Z,57.00
2019-03-21T18:46:13.198Z,53.27
2019-03-21T18:48:45.721Z,57.53
2019-03-21T18:51:18.308Z,54.03
2019-03-21T18:53:50.121Z,55.93
2019-03-21T18:56:22.134Z,57.93
2019-03-21T18:58:54.246Z,61.17
2019-03-21T19:01:26.148Z,65.13
2019-03-21T19:03:58.855Z,63.30
2019-03-21T19:06:30.890Z,66.27
2019-03-21T19:09:02.842Z,67.90
2019-03-21T19:11:36.246Z,68.57
2019-03-21T19:14:08.195Z,65.67
2019-03-21T19:16:40.110Z,61.73
2019-03-21T19:19:12.187Z,69.03
2019-03-21T19:21:44.423Z,69.17
2019-03-21T19:24:16.325Z,65.40
2019-03-21T19:26:48.286Z,58.40
2019-03-21T19:29:20.259Z,55.07
2019-03-21T19:31:52.133Z,60.27
2019-03-21T19:34:23.967Z,70.73
2019-03-21T19:36:55.889Z,66.17
2019-03-21T19:39:27.905Z,65.67
2019-03-21T19:41:59.937Z,56.57
2019-03-21T19:44:31.886Z,59.80
2019-03-21T19:47:04.191Z,61.40
2019-03-21T19:49:37.112Z,54.57
2019-03-21T19:52:09.153Z,58.33
2019-03-21T19:54:41.223Z,54.20
2019-03-21T19:57:13.208Z,59.30
2019-03-21T19:59:45.690Z,58.10
2019-03-21T20:02:17.716Z,53.97
2019-03-21T20:04:49.634Z,56.17
2019-03-21T20:07:21.593Z,49.00
2019-03-21T20:09:53.565Z,49.57
2019-03-21T20:12:26.432Z,48.20
2019-03-21T20:14:58.569Z,48.87
2019-03-21T20:17:30.584Z,48.00
2019-03-21T20:20:02.703Z,47.03
2019-03-21T20:22:35.016Z,47.63
2019-03-21T20:25:07.412Z,46.37
2019-03-21T20:27:39.561Z,46.70
2019-03-21T20:30:15.818Z,48.00
2019-03-21T20:32:48.561Z,47.57
2019-03-21T20:35:20.586Z,42.27
2019-03-21T20:37:53.940Z,41.27
2019-03-21T20:40:26.295Z,39.47
2019-03-21T20:42:59.999Z,32.53
2019-03-21T20:45:32.806Z,37.00
2019-03-21T20:48:04.887Z,32.60
2019-03-21T20:50:36.962Z,33.63
2019-03-21T20:53:08.917Z,34.33
2019-03-21T20:55:40.801Z,30.37
2019-03-21T20:58:12.997Z,34.83
2019-03-21T21:00:45.179Z,32.77
2019-03-21T21:03:17.092Z,29.27
2019-03-21T21:05:49.047Z,34.87
2019-03-21T21:08:21.135Z,32.13
2019-03-21T21:10:53.552Z,38.20
2019-03-21T21:13:25.953Z,37.20
2019-03-21T21:15:57.881Z,37.43
2019-03-21T21:18:31.355Z,36.87
2019-03-21T21:21:03.744Z,38.13
2019-03-21T21:23:35.972Z,33.50
2019-03-21T21:26:08.026Z,39.27
2019-03-21T21:28:39.970Z,38.50
2019-03-21T21:31:11.921Z,35.60
2019-03-21T21:33:43.969Z,41.27
2019-03-21T21:36:21.818Z,41.93
2019-03-21T21:38:49.459Z,40.13
2019-03-21T21:41:21.506Z,37.33
2019-03-21T21:43:53.808Z,45.97
2019-03-21T21:46:25.823Z,43.33
2019-03-21T21:48:57.680Z,42.23
2019-03-21T21:51:29.899Z,47.53
2019-03-21T21:54:01.941Z,43.47
2019-03-21T21:56:33.880Z,49.30
2019-03-21T21:59:05.740Z,48.33
2019-03-21T22:01:37.598Z,48.80
2019-03-21T22:04:09.522Z,43.80
2019-03-21T22:06:42.154Z,47.43
2019-03-21T22:09:14.343Z,50.10
2019-03-21T22:11:46.774Z,51.00
2019-03-21T22:14:18.670Z,47.27
2019-03-21T22:16:50.688Z,48.80
2019-03-21T22:19:22.522Z,47.13
2019-03-21T22:21:54.367Z,48.47
2019-03-21T22:24:26.299Z,49.97
2019-03-21T22:26:58.186Z,49.63
2019-03-21T22:29:30.131Z,47.03
2019-03-21T22:32:02.146Z,41.93
2019-03-21T22:34:34.552Z,48.93
2019-03-21T22:37:06.470Z,50.93
2019-03-21T22:39:38.339Z,44.60
2019-03-21T22:42:10.335Z,45.83
2019-03-21T22:45:00.418Z,46.57
2019-03-21T22:47:32.455Z,47.03
2019-03-21T22:52:59.067Z,47.07
2019-03-21T22:55:48.770Z,46.53
2019-03-21T22:58:31.439Z,43.67
2019-03-21T23:00:55.453Z,45.43
2019-03-21T23:03:27.443Z,38.00
2019-03-21T23:06:17.727Z,39.27
2019-03-21T23:08:49.560Z,40.87
2019-03-21T23:11:21.491Z,38.60
2019-03-21T23:14:12.696Z,37.50
2019-03-21T23:16:44.862Z,39.87
2019-03-21T23:19:16.737Z,40.47
2019-03-21T23:21:49.146Z,41.73
2019-03-21T23:24:20.998Z,37.23
2019-03-21T23:26:53.377Z,39.03
2019-03-21T23:29:25.599Z,44.80
2019-03-21T23:31:57.562Z,39.13
2019-03-21T23:34:29.685Z,36.10
2019-03-21T23:37:01.726Z,37.07
2019-03-21T23:39:33.742Z,35.83
2019-03-21T23:42:06.844Z,41.37
2019-03-21T23:44:40.638Z,33.23
2019-03-21T23:47:12.953Z,36.90
2019-03-21T23:49:45.487Z,40.13
2019-03-21T23:52:17.478Z,39.33
2019-03-21T23:54:49.381Z,42.37
2019-03-21T23:57:21.463Z,39.33
2019-03-21T23:59:53.410Z,34.67
